sensor_id;sensor_type;location;lat;lon;timestamp;P1;durP1;ratioP1;P2;durP2;ratioP2
22213;SDS011;11276;43.566;27.824;2022-11-18T00:03:32;13.83;;;6.23;;
22213;SDS011;11276;43.566;27.824;2022-11-18T00:05:59;10.67;;;6.03;;
22213;SDS011;11276;43.566;27.824;2022-11-18T00:08:25;9.07;;;5.87;;
22213;SDS011;11276;43.566;27.824;2022-11-18T00:10:52;7.50;;;5.40;;
22213;SDS011;11276;43.566;27.824;2022-11-18T00:13:19;7.43;;;5.83;;
22213;SDS011;11276;43.566;27.824;2022-11-18T00:16:09;7.07;;;5.13;;
22213;SDS011;11276;43.566;27.824;2022-11-18T00:18:37;7.73;;;5.33;;
22213;SDS011;11276;43.566;27.824;2022-11-18T00:21:06;9.70;;;5.37;;
22213;SDS011;11276;43.566;27.824;2022-11-18T00:23:34;6.27;;;4.60;;
22213;SDS011;11276;43.566;27.824;2022-11-18T00:26:09;7.50;;;4.73;;
22213;SDS011;11276;43.566;27.824;2022-11-18T00:28:37;6.47;;;4.40;;
22213;SDS011;11276;43.566;27.824;2022-11-18T00:31:06;12.03;;;6.00;;
22213;SDS011;11276;43.566;27.824;2022-11-18T00:33:38;8.60;;;5.90;;
22213;SDS011;11276;43.566;27.824;2022-11-18T00:36:05;7.53;;;5.43;;
22213;SDS011;11276;43.566;27.824;2022-11-18T00:38:34;7.10;;;5.17;;
22213;SDS011;11276;43.566;27.824;2022-11-18T00:41:02;8.50;;;6.20;;
22213;SDS011;11276;43.566;27.824;2022-11-18T00:43:34;7.50;;;4.97;;
22213;SDS011;11276;43.566;27.824;2022-11-18T00:46:01;8.90;;;5.80;;
22213;SDS011;11276;43.566;27.824;2022-11-18T00:48:29;7.90;;;5.23;;
22213;SDS011;11276;43.566;27.824;2022-11-18T00:50:56;6.73;;;5.03;;
22213;SDS011;11276;43.566;27.824;2022-11-18T00:53:25;8.67;;;5.57;;
22213;SDS011;11276;43.566;27.824;2022-11-18T00:55:52;7.30;;;5.50;;
22213;SDS011;11276;43.566;27.824;2022-11-18T00:58:19;8.50;;;4.60;;
22213;SDS011;11276;43.566;27.824;2022-11-18T01:00:48;8.10;;;5.40;;
22213;SDS011;11276;43.566;27.824;2022-11-18T01:03:17;6.17;;;4.70;;
22213;SDS011;11276;43.566;27.824;2022-11-18T01:05:45;7.07;;;4.90;;
22213;SDS011;11276;43.566;27.824;2022-11-18T01:08:13;7.13;;;4.87;;
22213;SDS011;11276;43.566;27.824;2022-11-18T01:10:40;9.90;;;5.43;;
22213;SDS011;11276;43.566;27.824;2022-11-18T01:13:10;7.80;;;4.93;;
22213;SDS011;11276;43.566;27.824;2022-11-18T01:15:52;7.73;;;4.70;;
22213;SDS011;11276;43.566;27.824;2022-11-18T01:18:21;4.90;;;3.77;;
22213;SDS011;11276;43.566;27.824;2022-11-18T01:21:00;6.53;;;4.50;;
22213;SDS011;11276;43.566;27.824;2022-11-18T01:23:28;7.53;;;4.70;;
22213;SDS011;11276;43.566;27.824;2022-11-18T01:25:55;8.30;;;5.17;;
22213;SDS011;11276;43.566;27.824;2022-11-18T01:28:22;7.07;;;5.20;;
22213;SDS011;11276;43.566;27.824;2022-11-18T01:30:49;6.00;;;4.53;;
22213;SDS011;11276;43.566;27.824;2022-11-18T01:33:16;7.40;;;3.70;;
22213;SDS011;11276;43.566;27.824;2022-11-18T01:35:43;11.30;;;5.37;;
22213;SDS011;11276;43.566;27.824;2022-11-18T01:38:11;7.40;;;4.97;;
22213;SDS011;11276;43.566;27.824;2022-11-18T01:40:40;6.10;;;4.17;;
22213;SDS011;11276;43.566;27.824;2022-11-18T01:43:11;6.60;;;4.63;;
22213;SDS011;11276;43.566;27.824;2022-11-18T01:45:39;8.70;;;4.97;;
22213;SDS011;11276;43.566;27.824;2022-11-18T01:50:41;7.03;;;4.90;;
22213;SDS011;11276;43.566;27.824;2022-11-18T01:53:13;5.63;;;4.50;;
22213;SDS011;11276;43.566;27.824;2022-11-18T01:55:47;5.70;;;4.37;;
22213;SDS011;11276;43.566;27.824;2022-11-18T01:58:19;6.87;;;4.93;;
22213;SDS011;11276;43.566;27.824;2022-11-18T02:00:51;5.57;;;4.13;;
22213;SDS011;11276;43.566;27.824;2022-11-18T02:03:19;8.40;;;4.90;;
22213;SDS011;11276;43.566;27.824;2022-11-18T02:05:47;7.33;;;5.30;;
22213;SDS011;11276;43.566;27.824;2022-11-18T02:08:15;6.30;;;4.83;;
22213;SDS011;11276;43.566;27.824;2022-11-18T02:10:44;7.50;;;5.13;;
22213;SDS011;11276;43.566;27.824;2022-11-18T02:13:10;10.30;;;5.20;;
22213;SDS011;11276;43.566;27.824;2022-11-18T02:18:49;7.10;;;4.60;;
22213;SDS011;11276;43.566;27.824;2022-11-18T02:21:28;6.37;;;4.83;;
22213;SDS011;11276;43.566;27.824;2022-11-18T02:29:54;5.80;;;4.50;;
22213;SDS011;11276;43.566;27.824;2022-11-18T02:32:35;10.63;;;5.53;;
22213;SDS011;11276;43.566;27.824;2022-11-18T02:38:04;6.33;;;5.10;;
22213;SDS011;11276;43.566;27.824;2022-11-18T02:40:42;8.27;;;5.23;;
22213;SDS011;11276;43.566;27.824;2022-11-18T02:43:29;4.80;;;4.10;;
22213;SDS011;11276;43.566;27.824;2022-11-18T02:46:02;7.40;;;5.23;;
22213;SDS011;11276;43.566;27.824;2022-11-18T02:48:32;6.50;;;4.80;;
22213;SDS011;11276;43.566;27.824;2022-11-18T02:51:03;5.10;;;4.33;;
22213;SDS011;11276;43.566;27.824;2022-11-18T02:53:33;9.20;;;5.50;;
22213;SDS011;11276;43.566;27.824;2022-11-18T02:56:03;6.00;;;4.77;;
22213;SDS011;11276;43.566;27.824;2022-11-18T02:58:31;7.90;;;5.77;;
22213;SDS011;11276;43.566;27.824;2022-11-18T03:00:59;6.93;;;5.10;;
22213;SDS011;11276;43.566;27.824;2022-11-18T03:03:30;8.77;;;5.33;;
22213;SDS011;11276;43.566;27.824;2022-11-18T03:06:18;6.10;;;4.70;;
22213;SDS011;11276;43.566;27.824;2022-11-18T03:11:28;6.40;;;5.30;;
22213;SDS011;11276;43.566;27.824;2022-11-18T03:16:55;8.27;;;5.07;;
22213;SDS011;11276;43.566;27.824;2022-11-18T03:22:31;9.13;;;5.00;;
22213;SDS011;11276;43.566;27.824;2022-11-18T03:25:09;7.10;;;5.20;;
22213;SDS011;11276;43.566;27.824;2022-11-18T03:30:23;6.87;;;5.20;;
22213;SDS011;11276;43.566;27.824;2022-11-18T03:33:01;8.93;;;5.47;;
22213;SDS011;11276;43.566;27.824;2022-11-18T03:35:34;9.70;;;6.13;;
22213;SDS011;11276;43.566;27.824;2022-11-18T03:38:08;8.47;;;5.60;;
22213;SDS011;11276;43.566;27.824;2022-11-18T03:40:41;7.90;;;5.90;;
22213;SDS011;11276;43.566;27.824;2022-11-18T03:43:20;7.70;;;5.60;;
22213;SDS011;11276;43.566;27.824;2022-11-18T03:46:01;8.07;;;5.23;;
22213;SDS011;11276;43.566;27.824;2022-11-18T03:48:31;7.47;;;5.47;;
22213;SDS011;11276;43.566;27.824;2022-11-18T03:51:10;9.30;;;5.20;;
22213;SDS011;11276;43.566;27.824;2022-11-18T03:53:44;7.90;;;5.53;;
22213;SDS011;11276;43.566;27.824;2022-11-18T03:56:19;7.60;;;5.90;;
22213;SDS011;11276;43.566;27.824;2022-11-18T03:58:53;6.20;;;4.50;;
22213;SDS011;11276;43.566;27.824;2022-11-18T04:01:39;10.43;;;4.97;;
22213;SDS011;11276;43.566;27.824;2022-11-18T04:04:09;8.93;;;5.60;;
22213;SDS011;11276;43.566;27.824;2022-11-18T04:09:46;6.73;;;5.17;;
22213;SDS011;11276;43.566;27.824;2022-11-18T04:12:30;6.17;;;4.60;;
22213;SDS011;11276;43.566;27.824;2022-11-18T04:14:59;13.03;;;5.63;;
22213;SDS011;11276;43.566;27.824;2022-11-18T04:17:27;7.60;;;5.00;;
22213;SDS011;11276;43.566;27.824;2022-11-18T04:19:54;7.20;;;5.30;;
22213;SDS011;11276;43.566;27.824;2022-11-18T04:22:21;7.20;;;5.20;;
22213;SDS011;11276;43.566;27.824;2022-11-18T04:24:48;6.63;;;4.93;;
22213;SDS011;11276;43.566;27.824;2022-11-18T04:27:14;9.60;;;5.53;;
22213;SDS011;11276;43.566;27.824;2022-11-18T04:29:41;7.97;;;5.07;;
22213;SDS011;11276;43.566;27.824;2022-11-18T04:32:08;8.03;;;5.50;;
22213;SDS011;11276;43.566;27.824;2022-11-18T04:34:35;9.33;;;5.43;;
22213;SDS011;11276;43.566;27.824;2022-11-18T04:37:01;6.43;;;5.03;;
22213;SDS011;11276;43.566;27.824;2022-11-18T04:39:28;7.40;;;5.00;;
22213;SDS011;11276;43.566;27.824;2022-11-18T04:41:55;7.13;;;5.33;;
22213;SDS011;11276;43.566;27.824;2022-11-18T04:46:59;11.60;;;6.47;;
22213;SDS011;11276;43.566;27.824;2022-11-18T04:49:27;12.47;;;7.00;;
22213;SDS011;11276;43.566;27.824;2022-11-18T04:51:54;8.70;;;5.93;;
22213;SDS011;11276;43.566;27.824;2022-11-18T04:54:22;10.47;;;6.00;;
22213;SDS011;11276;43.566;27.824;2022-11-18T04:56:51;10.10;;;6.43;;
22213;SDS011;11276;43.566;27.824;2022-11-18T04:59:19;12.03;;;6.50;;
22213;SDS011;11276;43.566;27.824;2022-11-18T05:01:48;13.57;;;7.07;;
22213;SDS011;11276;43.566;27.824;2022-11-18T05:04:17;10.93;;;6.53;;
22213;SDS011;11276;43.566;27.824;2022-11-18T05:06:48;12.23;;;6.73;;
22213;SDS011;11276;43.566;27.824;2022-11-18T05:09:15;11.60;;;7.97;;
22213;SDS011;11276;43.566;27.824;2022-11-18T05:11:43;10.30;;;6.30;;
22213;SDS011;11276;43.566;27.824;2022-11-18T05:14:29;17.20;;;6.43;;
22213;SDS011;11276;43.566;27.824;2022-11-18T05:16:58;26.43;;;6.80;;
22213;SDS011;11276;43.566;27.824;2022-11-18T05:19:26;18.97;;;7.40;;
22213;SDS011;11276;43.566;27.824;2022-11-18T05:21:53;20.60;;;8.07;;
22213;SDS011;11276;43.566;27.824;2022-11-18T05:24:20;22.73;;;7.00;;
22213;SDS011;11276;43.566;27.824;2022-11-18T05:26:50;14.07;;;6.20;;
22213;SDS011;11276;43.566;27.824;2022-11-18T05:29:18;14.23;;;6.90;;
22213;SDS011;11276;43.566;27.824;2022-11-18T05:31:46;17.03;;;7.30;;
22213;SDS011;11276;43.566;27.824;2022-11-18T05:34:13;18.03;;;6.77;;
22213;SDS011;11276;43.566;27.824;2022-11-18T05:36:40;14.53;;;7.33;;
22213;SDS011;11276;43.566;27.824;2022-11-18T05:39:07;16.43;;;8.07;;
22213;SDS011;11276;43.566;27.824;2022-11-18T05:41:35;21.87;;;7.90;;
22213;SDS011;11276;43.566;27.824;2022-11-18T05:44:20;20.90;;;8.87;;
22213;SDS011;11276;43.566;27.824;2022-11-18T05:46:46;20.87;;;8.20;;
22213;SDS011;11276;43.566;27.824;2022-11-18T05:49:13;19.13;;;10.50;;
22213;SDS011;11276;43.566;27.824;2022-11-18T05:51:40;24.03;;;10.50;;
22213;SDS011;11276;43.566;27.824;2022-11-18T05:54:08;20.37;;;9.90;;
22213;SDS011;11276;43.566;27.824;2022-11-18T05:56:36;27.93;;;9.47;;
22213;SDS011;11276;43.566;27.824;2022-11-18T05:59:05;24.47;;;10.90;;
22213;SDS011;11276;43.566;27.824;2022-11-18T06:07:04;24.17;;;9.57;;
22213;SDS011;11276;43.566;27.824;2022-11-18T06:09:38;23.30;;;7.70;;
22213;SDS011;11276;43.566;27.824;2022-11-18T06:12:09;23.90;;;7.90;;
22213;SDS011;11276;43.566;27.824;2022-11-18T06:14:57;27.43;;;8.60;;
22213;SDS011;11276;43.566;27.824;2022-11-18T06:17:35;14.33;;;6.33;;
22213;SDS011;11276;43.566;27.824;2022-11-18T06:20:08;11.77;;;6.60;;
22213;SDS011;11276;43.566;27.824;2022-11-18T06:22:35;23.90;;;7.93;;
22213;SDS011;11276;43.566;27.824;2022-11-18T06:25:04;27.73;;;7.70;;
22213;SDS011;11276;43.566;27.824;2022-11-18T06:27:31;13.23;;;6.13;;
22213;SDS011;11276;43.566;27.824;2022-11-18T06:29:58;12.27;;;5.97;;
22213;SDS011;11276;43.566;27.824;2022-11-18T06:32:24;14.10;;;5.40;;
22213;SDS011;11276;43.566;27.824;2022-11-18T06:34:51;10.80;;;5.57;;
22213;SDS011;11276;43.566;27.824;2022-11-18T06:37:18;16.70;;;5.73;;
22213;SDS011;11276;43.566;27.824;2022-11-18T06:39:48;11.03;;;5.10;;
22213;SDS011;11276;43.566;27.824;2022-11-18T06:42:14;13.93;;;6.73;;
22213;SDS011;11276;43.566;27.824;2022-11-18T06:45:02;12.47;;;8.97;;
22213;SDS011;11276;43.566;27.824;2022-11-18T06:47:29;12.47;;;8.10;;
22213;SDS011;11276;43.566;27.824;2022-11-18T06:49:56;7.37;;;3.83;;
22213;SDS011;11276;43.566;27.824;2022-11-18T06:52:23;7.70;;;3.90;;
22213;SDS011;11276;43.566;27.824;2022-11-18T06:54:49;4.70;;;3.73;;
22213;SDS011;11276;43.566;27.824;2022-11-18T06:57:16;6.53;;;3.93;;
22213;SDS011;11276;43.566;27.824;2022-11-18T06:59:43;9.20;;;5.37;;
22213;SDS011;11276;43.566;27.824;2022-11-18T07:02:09;8.77;;;4.93;;
22213;SDS011;11276;43.566;27.824;2022-11-18T07:04:36;7.10;;;4.70;;
22213;SDS011;11276;43.566;27.824;2022-11-18T07:07:06;14.03;;;4.03;;
22213;SDS011;11276;43.566;27.824;2022-11-18T07:09:33;6.43;;;3.37;;
22213;SDS011;11276;43.566;27.824;2022-11-18T07:12:00;6.03;;;3.60;;
22213;SDS011;11276;43.566;27.824;2022-11-18T07:14:28;5.40;;;2.77;;
22213;SDS011;11276;43.566;27.824;2022-11-18T07:16:54;3.33;;;2.80;;
22213;SDS011;11276;43.566;27.824;2022-11-18T07:19:21;6.27;;;2.67;;
22213;SDS011;11276;43.566;27.824;2022-11-18T07:21:48;4.30;;;2.50;;
22213;SDS011;11276;43.566;27.824;2022-11-18T07:24:15;8.33;;;3.00;;
22213;SDS011;11276;43.566;27.824;2022-11-18T07:26:42;5.10;;;2.67;;
22213;SDS011;11276;43.566;27.824;2022-11-18T07:29:09;4.50;;;2.67;;
22213;SDS011;11276;43.566;27.824;2022-11-18T07:31:35;3.53;;;2.00;;
22213;SDS011;11276;43.566;27.824;2022-11-18T07:34:04;3.37;;;2.40;;
22213;SDS011;11276;43.566;27.824;2022-11-18T07:36:31;4.60;;;2.43;;
22213;SDS011;11276;43.566;27.824;2022-11-18T07:39:00;5.17;;;2.00;;
22213;SDS011;11276;43.566;27.824;2022-11-18T07:41:29;4.70;;;2.80;;
22213;SDS011;11276;43.566;27.824;2022-11-18T07:43:57;5.80;;;3.40;;
22213;SDS011;11276;43.566;27.824;2022-11-18T07:46:26;3.50;;;2.70;;
22213;SDS011;11276;43.566;27.824;2022-11-18T07:48:55;5.80;;;3.03;;
22213;SDS011;11276;43.566;27.824;2022-11-18T07:51:24;3.10;;;2.40;;
22213;SDS011;11276;43.566;27.824;2022-11-18T07:53:54;6.87;;;2.67;;
22213;SDS011;11276;43.566;27.824;2022-11-18T07:56:21;2.43;;;2.20;;
22213;SDS011;11276;43.566;27.824;2022-11-18T07:58:52;2.47;;;2.27;;
22213;SDS011;11276;43.566;27.824;2022-11-18T08:01:21;3.60;;;2.30;;
22213;SDS011;11276;43.566;27.824;2022-11-18T08:03:49;3.07;;;2.30;;
22213;SDS011;11276;43.566;27.824;2022-11-18T08:06:17;3.80;;;2.43;;
22213;SDS011;11276;43.566;27.824;2022-11-18T08:08:45;2.20;;;2.00;;
22213;SDS011;11276;43.566;27.824;2022-11-18T08:11:16;4.30;;;2.50;;
22213;SDS011;11276;43.566;27.824;2022-11-18T08:13:47;4.63;;;2.30;;
22213;SDS011;11276;43.566;27.824;2022-11-18T08:16:14;4.20;;;2.70;;
22213;SDS011;11276;43.566;27.824;2022-11-18T08:18:43;6.33;;;2.80;;
22213;SDS011;11276;43.566;27.824;2022-11-18T08:21:10;3.70;;;3.00;;
22213;SDS011;11276;43.566;27.824;2022-11-18T08:23:37;10.77;;;2.57;;
22213;SDS011;11276;43.566;27.824;2022-11-18T08:26:10;4.43;;;3.07;;
22213;SDS011;11276;43.566;27.824;2022-11-18T08:28:42;3.03;;;2.73;;
22213;SDS011;11276;43.566;27.824;2022-11-18T08:31:10;6.23;;;2.80;;
22213;SDS011;11276;43.566;27.824;2022-11-18T08:33:38;4.37;;;2.90;;
22213;SDS011;11276;43.566;27.824;2022-11-18T08:36:06;4.10;;;2.77;;
22213;SDS011;11276;43.566;27.824;2022-11-18T08:38:35;4.70;;;3.33;;
22213;SDS011;11276;43.566;27.824;2022-11-18T08:41:02;4.83;;;3.27;;
22213;SDS011;11276;43.566;27.824;2022-11-18T08:43:30;4.40;;;2.80;;
22213;SDS011;11276;43.566;27.824;2022-11-18T08:45:57;5.20;;;3.33;;
22213;SDS011;11276;43.566;27.824;2022-11-18T08:48:23;3.90;;;2.90;;
22213;SDS011;11276;43.566;27.824;2022-11-18T08:50:50;4.83;;;3.80;;
22213;SDS011;11276;43.566;27.824;2022-11-18T08:53:18;4.10;;;2.80;;
22213;SDS011;11276;43.566;27.824;2022-11-18T08:55:44;4.33;;;2.90;;
22213;SDS011;11276;43.566;27.824;2022-11-18T08:58:11;5.20;;;3.20;;
22213;SDS011;11276;43.566;27.824;2022-11-18T09:00:38;3.30;;;2.63;;
22213;SDS011;11276;43.566;27.824;2022-11-18T09:03:04;5.10;;;2.80;;
22213;SDS011;11276;43.566;27.824;2022-11-18T09:05:31;4.53;;;3.30;;
22213;SDS011;11276;43.566;27.824;2022-11-18T09:07:58;9.10;;;3.67;;
22213;SDS011;11276;43.566;27.824;2022-11-18T09:10:24;4.17;;;3.40;;
22213;SDS011;11276;43.566;27.824;2022-11-18T09:12:51;6.40;;;3.33;;
22213;SDS011;11276;43.566;27.824;2022-11-18T09:15:18;6.20;;;4.10;;
22213;SDS011;11276;43.566;27.824;2022-11-18T09:17:45;5.23;;;4.07;;
22213;SDS011;11276;43.566;27.824;2022-11-18T09:20:12;5.67;;;3.97;;
22213;SDS011;11276;43.566;27.824;2022-11-18T09:22:39;7.17;;;3.90;;
22213;SDS011;11276;43.566;27.824;2022-11-18T09:25:06;6.40;;;4.33;;
22213;SDS011;11276;43.566;27.824;2022-11-18T09:27:33;8.60;;;4.50;;
22213;SDS011;11276;43.566;27.824;2022-11-18T09:30:00;5.43;;;4.57;;
22213;SDS011;11276;43.566;27.824;2022-11-18T09:32:27;13.37;;;4.77;;
22213;SDS011;11276;43.566;27.824;2022-11-18T09:34:53;5.00;;;4.37;;
22213;SDS011;11276;43.566;27.824;2022-11-18T09:37:20;6.97;;;4.03;;
22213;SDS011;11276;43.566;27.824;2022-11-18T09:39:47;7.20;;;4.37;;
22213;SDS011;11276;43.566;27.824;2022-11-18T09:42:27;5.60;;;4.03;;
22213;SDS011;11276;43.566;27.824;2022-11-18T09:45:07;7.13;;;4.60;;
22213;SDS011;11276;43.566;27.824;2022-11-18T09:47:39;5.83;;;4.30;;
22213;SDS011;11276;43.566;27.824;2022-11-18T09:50:10;6.07;;;3.97;;
22213;SDS011;11276;43.566;27.824;2022-11-18T09:55:42;9.30;;;3.97;;
22213;SDS011;11276;43.566;27.824;2022-11-18T09:58:52;6.23;;;4.70;;
22213;SDS011;11276;43.566;27.824;2022-11-18T10:01:01;6.70;;;3.73;;
22213;SDS011;11276;43.566;27.824;2022-11-18T10:03:30;5.20;;;3.80;;
22213;SDS011;11276;43.566;27.824;2022-11-18T10:08:35;7.03;;;4.37;;
22213;SDS011;11276;43.566;27.824;2022-11-18T10:13:39;9.60;;;5.00;;
22213;SDS011;11276;43.566;27.824;2022-11-18T10:16:31;7.20;;;4.60;;
22213;SDS011;11276;43.566;27.824;2022-11-18T10:19:16;7.63;;;4.67;;
22213;SDS011;11276;43.566;27.824;2022-11-18T10:25:01;7.23;;;4.57;;
22213;SDS011;11276;43.566;27.824;2022-11-18T10:27:38;11.40;;;5.37;;
22213;SDS011;11276;43.566;27.824;2022-11-18T10:30:11;7.00;;;5.00;;
22213;SDS011;11276;43.566;27.824;2022-11-18T10:35:47;10.43;;;4.70;;
22213;SDS011;11276;43.566;27.824;2022-11-18T10:38:16;12.40;;;5.17;;
22213;SDS011;11276;43.566;27.824;2022-11-18T10:40:45;6.37;;;5.10;;
22213;SDS011;11276;43.566;27.824;2022-11-18T10:44:01;10.80;;;5.17;;
22213;SDS011;11276;43.566;27.824;2022-11-18T10:54:06;9.43;;;6.17;;
22213;SDS011;11276;43.566;27.824;2022-11-18T10:56:46;8.53;;;5.30;;
22213;SDS011;11276;43.566;27.824;2022-11-18T10:59:34;9.70;;;5.10;;
22213;SDS011;11276;43.566;27.824;2022-11-18T11:02:16;15.10;;;6.00;;
22213;SDS011;11276;43.566;27.824;2022-11-18T11:04:44;6.97;;;5.10;;
22213;SDS011;11276;43.566;27.824;2022-11-18T11:07:23;12.83;;;6.63;;
22213;SDS011;11276;43.566;27.824;2022-11-18T11:12:51;9.30;;;5.30;;
22213;SDS011;11276;43.566;27.824;2022-11-18T11:15:31;9.20;;;5.07;;
22213;SDS011;11276;43.566;27.824;2022-11-18T11:18:20;7.87;;;5.17;;
22213;SDS011;11276;43.566;27.824;2022-11-18T11:23:40;8.80;;;5.90;;
22213;SDS011;11276;43.566;27.824;2022-11-18T11:26:12;12.47;;;4.70;;
22213;SDS011;11276;43.566;27.824;2022-11-18T11:35:13;16.70;;;4.33;;
22213;SDS011;11276;43.566;27.824;2022-11-18T11:37:57;9.10;;;5.33;;
22213;SDS011;11276;43.566;27.824;2022-11-18T11:40:39;5.37;;;4.30;;
22213;SDS011;11276;43.566;27.824;2022-11-18T11:51:23;17.20;;;4.80;;
22213;SDS011;11276;43.566;27.824;2022-11-18T11:56:34;12.13;;;4.73;;
22213;SDS011;11276;43.566;27.824;2022-11-18T11:59:08;10.00;;;5.23;;
22213;SDS011;11276;43.566;27.824;2022-11-18T12:04:41;11.10;;;5.13;;
22213;SDS011;11276;43.566;27.824;2022-11-18T12:07:13;9.43;;;5.47;;
22213;SDS011;11276;43.566;27.824;2022-11-18T12:12:57;11.90;;;6.03;;
22213;SDS011;11276;43.566;27.824;2022-11-18T12:16:05;10.40;;;5.60;;
22213;SDS011;11276;43.566;27.824;2022-11-18T12:18:49;9.90;;;5.30;;
22213;SDS011;11276;43.566;27.824;2022-11-18T12:26:46;8.43;;;5.40;;
22213;SDS011;11276;43.566;27.824;2022-11-18T12:29:23;10.60;;;5.90;;
22213;SDS011;11276;43.566;27.824;2022-11-18T12:32:01;8.83;;;5.80;;
22213;SDS011;11276;43.566;27.824;2022-11-18T12:34:37;11.93;;;5.50;;
22213;SDS011;11276;43.566;27.824;2022-11-18T12:39:57;7.30;;;5.40;;
22213;SDS011;11276;43.566;27.824;2022-11-18T12:50:52;12.40;;;7.03;;
22213;SDS011;11276;43.566;27.824;2022-11-18T12:53:40;11.40;;;6.00;;
22213;SDS011;11276;43.566;27.824;2022-11-18T12:56:10;10.97;;;5.90;;
22213;SDS011;11276;43.566;27.824;2022-11-18T12:58:45;13.30;;;6.63;;
22213;SDS011;11276;43.566;27.824;2022-11-18T13:01:15;11.00;;;7.07;;
22213;SDS011;11276;43.566;27.824;2022-11-18T13:03:44;14.63;;;7.00;;
22213;SDS011;11276;43.566;27.824;2022-11-18T13:06:22;12.57;;;6.50;;
22213;SDS011;11276;43.566;27.824;2022-11-18T13:09:03;11.63;;;6.83;;
22213;SDS011;11276;43.566;27.824;2022-11-18T13:11:39;8.80;;;6.30;;
22213;SDS011;11276;43.566;27.824;2022-11-18T13:23:44;17.93;;;7.27;;
22213;SDS011;11276;43.566;27.824;2022-11-18T13:26:22;13.30;;;7.50;;
22213;SDS011;11276;43.566;27.824;2022-11-18T13:34:21;15.23;;;8.87;;
22213;SDS011;11276;43.566;27.824;2022-11-18T13:36:51;15.40;;;8.67;;
22213;SDS011;11276;43.566;27.824;2022-11-18T13:39:23;16.10;;;8.60;;
22213;SDS011;11276;43.566;27.824;2022-11-18T13:44:28;17.20;;;9.57;;
22213;SDS011;11276;43.566;27.824;2022-11-18T13:47:18;21.43;;;11.33;;
22213;SDS011;11276;43.566;27.824;2022-11-18T13:52:34;18.87;;;10.10;;
22213;SDS011;11276;43.566;27.824;2022-11-18T13:57:40;22.03;;;10.67;;
22213;SDS011;11276;43.566;27.824;2022-11-18T14:00:19;17.83;;;10.90;;
22213;SDS011;11276;43.566;27.824;2022-11-18T14:02:58;22.47;;;12.20;;
22213;SDS011;11276;43.566;27.824;2022-11-18T14:05:28;23.87;;;11.60;;
22213;SDS011;11276;43.566;27.824;2022-11-18T14:08:00;22.40;;;11.23;;
22213;SDS011;11276;43.566;27.824;2022-11-18T14:10:40;15.40;;;9.97;;
22213;SDS011;11276;43.566;27.824;2022-11-18T14:13:16;19.53;;;10.60;;
22213;SDS011;11276;43.566;27.824;2022-11-18T14:15:49;18.87;;;11.20;;
22213;SDS011;11276;43.566;27.824;2022-11-18T14:18:28;17.33;;;10.83;;
22213;SDS011;11276;43.566;27.824;2022-11-18T14:21:02;21.90;;;11.40;;
22213;SDS011;11276;43.566;27.824;2022-11-18T14:23:32;19.83;;;11.20;;
22213;SDS011;11276;43.566;27.824;2022-11-18T14:26:00;17.60;;;10.80;;
22213;SDS011;11276;43.566;27.824;2022-11-18T14:28:31;23.17;;;11.40;;
22213;SDS011;11276;43.566;27.824;2022-11-18T14:31:08;19.80;;;13.00;;
22213;SDS011;11276;43.566;27.824;2022-11-18T14:36:43;19.57;;;12.03;;
22213;SDS011;11276;43.566;27.824;2022-11-18T14:39:11;26.00;;;12.93;;
22213;SDS011;11276;43.566;27.824;2022-11-18T14:41:54;24.57;;;13.07;;
22213;SDS011;11276;43.566;27.824;2022-11-18T14:44:22;26.27;;;13.60;;
22213;SDS011;11276;43.566;27.824;2022-11-18T14:46:52;22.30;;;13.50;;
22213;SDS011;11276;43.566;27.824;2022-11-18T14:49:23;24.87;;;12.50;;
22213;SDS011;11276;43.566;27.824;2022-11-18T14:51:51;22.90;;;13.60;;
22213;SDS011;11276;43.566;27.824;2022-11-18T14:54:20;22.97;;;13.20;;
22213;SDS011;11276;43.566;27.824;2022-11-18T14:56:52;18.97;;;12.13;;
22213;SDS011;11276;43.566;27.824;2022-11-18T14:59:22;23.03;;;13.10;;
22213;SDS011;11276;43.566;27.824;2022-11-18T15:01:48;22.20;;;12.60;;
22213;SDS011;11276;43.566;27.824;2022-11-18T15:04:15;24.70;;;13.03;;
22213;SDS011;11276;43.566;27.824;2022-11-18T15:06:42;25.50;;;14.90;;
22213;SDS011;11276;43.566;27.824;2022-11-18T15:09:10;24.40;;;13.90;;
22213;SDS011;11276;43.566;27.824;2022-11-18T15:11:37;32.57;;;15.37;;
22213;SDS011;11276;43.566;27.824;2022-11-18T15:14:04;21.27;;;13.87;;
22213;SDS011;11276;43.566;27.824;2022-11-18T15:16:31;30.17;;;15.20;;
22213;SDS011;11276;43.566;27.824;2022-11-18T15:19:01;28.30;;;15.67;;
22213;SDS011;11276;43.566;27.824;2022-11-18T15:21:29;36.40;;;16.73;;
22213;SDS011;11276;43.566;27.824;2022-11-18T15:23:56;23.17;;;14.83;;
22213;SDS011;11276;43.566;27.824;2022-11-18T15:26:33;26.33;;;15.60;;
22213;SDS011;11276;43.566;27.824;2022-11-18T15:29:03;27.57;;;16.00;;
22213;SDS011;11276;43.566;27.824;2022-11-18T15:31:30;26.83;;;16.60;;
22213;SDS011;11276;43.566;27.824;2022-11-18T15:33:57;26.67;;;17.20;;
22213;SDS011;11276;43.566;27.824;2022-11-18T15:36:26;40.13;;;17.90;;
22213;SDS011;11276;43.566;27.824;2022-11-18T15:38:53;29.53;;;15.80;;
22213;SDS011;11276;43.566;27.824;2022-11-18T15:41:24;28.30;;;17.67;;
22213;SDS011;11276;43.566;27.824;2022-11-18T15:43:52;32.57;;;18.20;;
22213;SDS011;11276;43.566;27.824;2022-11-18T15:46:21;34.30;;;18.47;;
22213;SDS011;11276;43.566;27.824;2022-11-18T15:48:52;44.50;;;20.50;;
22213;SDS011;11276;43.566;27.824;2022-11-18T15:51:20;30.37;;;19.70;;
22213;SDS011;11276;43.566;27.824;2022-11-18T15:53:48;36.40;;;20.67;;
22213;SDS011;11276;43.566;27.824;2022-11-18T16:01:22;34.20;;;22.17;;
22213;SDS011;11276;43.566;27.824;2022-11-18T16:03:50;40.17;;;22.47;;
22213;SDS011;11276;43.566;27.824;2022-11-18T16:06:16;45.63;;;23.03;;
22213;SDS011;11276;43.566;27.824;2022-11-18T16:08:43;37.00;;;22.60;;
22213;SDS011;11276;43.566;27.824;2022-11-18T16:11:11;47.73;;;24.87;;
22213;SDS011;11276;43.566;27.824;2022-11-18T16:14:01;42.97;;;24.73;;
22213;SDS011;11276;43.566;27.824;2022-11-18T16:16:29;55.93;;;25.17;;
22213;SDS011;11276;43.566;27.824;2022-11-18T16:18:56;41.87;;;23.53;;
22213;SDS011;11276;43.566;27.824;2022-11-18T16:21:25;47.70;;;24.40;;
22213;SDS011;11276;43.566;27.824;2022-11-18T16:23:53;38.50;;;22.83;;
22213;SDS011;11276;43.566;27.824;2022-11-18T16:26:24;37.90;;;22.77;;
22213;SDS011;11276;43.566;27.824;2022-11-18T16:28:52;40.30;;;23.17;;
22213;SDS011;11276;43.566;27.824;2022-11-18T16:31:19;48.10;;;23.70;;
22213;SDS011;11276;43.566;27.824;2022-11-18T16:36:31;39.80;;;23.00;;
22213;SDS011;11276;43.566;27.824;2022-11-18T16:39:08;40.27;;;22.90;;
22213;SDS011;11276;43.566;27.824;2022-11-18T16:41:37;42.13;;;21.50;;
22213;SDS011;11276;43.566;27.824;2022-11-18T16:44:08;47.90;;;22.00;;
22213;SDS011;11276;43.566;27.824;2022-11-18T16:46:39;41.03;;;23.40;;
22213;SDS011;11276;43.566;27.824;2022-11-18T16:49:12;43.73;;;21.70;;
22213;SDS011;11276;43.566;27.824;2022-11-18T16:51:40;44.57;;;22.20;;
22213;SDS011;11276;43.566;27.824;2022-11-18T16:54:13;37.40;;;20.33;;
22213;SDS011;11276;43.566;27.824;2022-11-18T16:56:50;42.97;;;21.10;;
22213;SDS011;11276;43.566;27.824;2022-11-18T16:59:28;33.50;;;21.20;;
22213;SDS011;11276;43.566;27.824;2022-11-18T17:01:56;49.93;;;23.97;;
22213;SDS011;11276;43.566;27.824;2022-11-18T17:04:25;48.63;;;23.27;;
22213;SDS011;11276;43.566;27.824;2022-11-18T17:06:53;40.93;;;21.50;;
22213;SDS011;11276;43.566;27.824;2022-11-18T17:09:20;37.33;;;21.80;;